sensor_id;sensor_type;location;lat;lon;timestamp;temperature;humidity
15286;DHT22;7744;52.172;10.668;2023-04-19T00:00:58;8.20;1.00
15286;DHT22;7744;52.172;10.668;2023-04-19T00:03:26;8.10;1.00
15286;DHT22;7744;52.172;10.668;2023-04-19T00:05:52;8.00;1.00
15286;DHT22;7744;52.172;10.668;2023-04-19T00:08:23;7.90;1.00
15286;DHT22;7744;52.172;10.668;2023-04-19T00:10:48;7.90;1.00
15286;DHT22;7744;52.172;10.668;2023-04-19T00:13:14;7.80;1.00
15286;DHT22;7744;52.172;10.668;2023-04-19T00:15:39;7.70;1.00
15286;DHT22;7744;52.172;10.668;2023-04-19T00:18:05;7.60;1.00
15286;DHT22;7744;52.172;10.668;2023-04-19T00:20:31;7.60;1.00
15286;DHT22;7744;52.172;10.668;2023-04-19T00:22:57;7.40;1.00
15286;DHT22;7744;52.172;10.668;2023-04-19T00:25:23;7.30;1.00
15286;DHT22;7744;52.172;10.668;2023-04-19T00:27:49;7.20;1.00
15286;DHT22;7744;52.172;10.668;2023-04-19T00:30:15;7.10;1.00
15286;DHT22;7744;52.172;10.668;2023-04-19T00:32:40;7.00;1.00
15286;DHT22;7744;52.172;10.668;2023-04-19T00:35:06;6.80;1.00
15286;DHT22;7744;52.172;10.668;2023-04-19T00:37:31;6.80;1.00
15286;DHT22;7744;52.172;10.668;2023-04-19T00:39:57;6.80;1.00
15286;DHT22;7744;52.172;10.668;2023-04-19T00:42:22;6.70;1.00
15286;DHT22;7744;52.172;10.668;2023-04-19T00:44:48;6.60;1.00
15286;DHT22;7744;52.172;10.668;2023-04-19T00:47:13;6.50;1.00
15286;DHT22;7744;52.172;10.668;2023-04-19T00:49:39;6.40;1.00
15286;DHT22;7744;52.172;10.668;2023-04-19T00:52:06;6.20;1.00
15286;DHT22;7744;52.172;10.668;2023-04-19T00:54:32;6.00;1.00
15286;DHT22;7744;52.172;10.668;2023-04-19T00:56:58;5.90;1.00
15286;DHT22;7744;52.172;10.668;2023-04-19T00:59:23;5.80;1.00
15286;DHT22;7744;52.172;10.668;2023-04-19T01:01:50;5.80;1.00
15286;DHT22;7744;52.172;10.668;2023-04-19T01:04:15;5.70;1.00
15286;DHT22;7744;52.172;10.668;2023-04-19T01:06:41;5.70;1.00
15286;DHT22;7744;52.172;10.668;2023-04-19T01:09:07;5.70;1.00
15286;DHT22;7744;52.172;10.668;2023-04-19T01:11:33;5.90;1.00
15286;DHT22;7744;52.172;10.668;2023-04-19T01:13:59;5.80;1.00
15286;DHT22;7744;52.172;10.668;2023-04-19T01:16:27;5.70;1.00
15286;DHT22;7744;52.172;10.668;2023-04-19T01:18:53;5.50;1.00
15286;DHT22;7744;52.172;10.668;2023-04-19T01:21:19;5.40;1.00
15286;DHT22;7744;52.172;10.668;2023-04-19T01:23:46;5.30;1.00
15286;DHT22;7744;52.172;10.668;2023-04-19T01:26:12;5.20;1.00
15286;DHT22;7744;52.172;10.668;2023-04-19T01:28:37;5.10;1.00
15286;DHT22;7744;52.172;10.668;2023-04-19T01:31:03;5.10;1.00
15286;DHT22;7744;52.172;10.668;2023-04-19T01:33:28;5.10;1.00
15286;DHT22;7744;52.172;10.668;2023-04-19T01:35:54;5.00;1.00
15286;DHT22;7744;52.172;10.668;2023-04-19T01:38:19;4.90;1.00
15286;DHT22;7744;52.172;10.668;2023-04-19T01:40:45;4.80;1.00
15286;DHT22;7744;52.172;10.668;2023-04-19T01:43:16;4.70;1.00
15286;DHT22;7744;52.172;10.668;2023-04-19T01:45:42;4.70;1.00
15286;DHT22;7744;52.172;10.668;2023-04-19T01:48:08;4.70;1.00
15286;DHT22;7744;52.172;10.668;2023-04-19T01:50:33;4.60;1.00
15286;DHT22;7744;52.172;10.668;2023-04-19T01:52:59;4.50;1.00
15286;DHT22;7744;52.172;10.668;2023-04-19T01:55:25;4.50;1.00
15286;DHT22;7744;52.172;10.668;2023-04-19T01:57:50;4.40;1.00
15286;DHT22;7744;52.172;10.668;2023-04-19T02:00:18;4.30;1.00
15286;DHT22;7744;52.172;10.668;2023-04-19T02:02:43;4.20;1.00
15286;DHT22;7744;52.172;10.668;2023-04-19T02:05:09;4.20;1.00
15286;DHT22;7744;52.172;10.668;2023-04-19T02:07:35;4.20;1.00
15286;DHT22;7744;52.172;10.668;2023-04-19T02:10:01;4.10;1.00
15286;DHT22;7744;52.172;10.668;2023-04-19T02:12:27;4.00;1.00
15286;DHT22;7744;52.172;10.668;2023-04-19T02:14:54;4.00;1.00
15286;DHT22;7744;52.172;10.668;2023-04-19T02:17:23;3.90;1.00
15286;DHT22;7744;52.172;10.668;2023-04-19T02:19:49;4.00;1.00
15286;DHT22;7744;52.172;10.668;2023-04-19T02:22:15;3.90;1.00
15286;DHT22;7744;52.172;10.668;2023-04-19T02:24:40;3.90;1.00
15286;DHT22;7744;52.172;10.668;2023-04-19T02:27:06;3.90;1.00
15286;DHT22;7744;52.172;10.668;2023-04-19T02:29:32;3.80;1.00
15286;DHT22;7744;52.172;10.668;2023-04-19T02:31:57;3.90;1.00
15286;DHT22;7744;52.172;10.668;2023-04-19T02:34:23;3.90;1.00
15286;DHT22;7744;52.172;10.668;2023-04-19T02:36:49;3.90;1.00
15286;DHT22;7744;52.172;10.668;2023-04-19T02:39:14;3.90;1.00
15286;DHT22;7744;52.172;10.668;2023-04-19T02:41:41;3.80;1.00
15286;DHT22;7744;52.172;10.668;2023-04-19T02:44:06;3.70;1.00
15286;DHT22;7744;52.172;10.668;2023-04-19T02:46:33;3.60;1.00
15286;DHT22;7744;52.172;10.668;2023-04-19T02:49:01;3.70;1.00
15286;DHT22;7744;52.172;10.668;2023-04-19T02:51:27;3.70;1.00
15286;DHT22;7744;52.172;10.668;2023-04-19T02:53:52;3.60;1.00
15286;DHT22;7744;52.172;10.668;2023-04-19T02:56:18;3.60;1.00
15286;DHT22;7744;52.172;10.668;2023-04-19T02:58:44;3.50;1.00
15286;DHT22;7744;52.172;10.668;2023-04-19T03:01:09;3.50;1.00
15286;DHT22;7744;52.172;10.668;2023-04-19T03:03:35;3.50;1.00
15286;DHT22;7744;52.172;10.668;2023-04-19T03:06:01;3.50;1.00
15286;DHT22;7744;52.172;10.668;2023-04-19T03:08:27;3.50;1.00
15286;DHT22;7744;52.172;10.668;2023-04-19T03:10:52;3.50;1.00
15286;DHT22;7744;52.172;10.668;2023-04-19T03:13:18;3.50;1.00
15286;DHT22;7744;52.172;10.668;2023-04-19T03:15:43;3.50;1.00
15286;DHT22;7744;52.172;10.668;2023-04-19T03:18:09;3.50;1.00
15286;DHT22;7744;52.172;10.668;2023-04-19T03:20:34;3.50;1.00
15286;DHT22;7744;52.172;10.668;2023-04-19T03:23:00;3.60;1.00
15286;DHT22;7744;52.172;10.668;2023-04-19T03:25:26;3.60;1.00
15286;DHT22;7744;52.172;10.668;2023-04-19T03:27:52;3.40;1.00
15286;DHT22;7744;52.172;10.668;2023-04-19T03:30:17;3.40;1.00
15286;DHT22;7744;52.172;10.668;2023-04-19T03:32:43;3.30;1.00
15286;DHT22;7744;52.172;10.668;2023-04-19T03:35:09;3.30;1.00
15286;DHT22;7744;52.172;10.668;2023-04-19T03:37:34;3.30;1.00
15286;DHT22;7744;52.172;10.668;2023-04-19T03:40:00;3.30;1.00
15286;DHT22;7744;52.172;10.668;2023-04-19T03:42:26;3.20;1.00
15286;DHT22;7744;52.172;10.668;2023-04-19T03:44:51;3.20;1.00
15286;DHT22;7744;52.172;10.668;2023-04-19T03:47:17;3.20;1.00
15286;DHT22;7744;52.172;10.668;2023-04-19T03:49:42;3.20;1.00
15286;DHT22;7744;52.172;10.668;2023-04-19T03:52:08;3.30;1.00
15286;DHT22;7744;52.172;10.668;2023-04-19T03:54:33;3.30;1.00
15286;DHT22;7744;52.172;10.668;2023-04-19T03:56:59;3.30;1.00
15286;DHT22;7744;52.172;10.668;2023-04-19T03:59:25;3.30;1.00
15286;DHT22;7744;52.172;10.668;2023-04-19T04:01:50;3.20;1.00
15286;DHT22;7744;52.172;10.668;2023-04-19T04:04:16;3.20;1.00
15286;DHT22;7744;52.172;10.668;2023-04-19T04:06:41;3.30;1.00
15286;DHT22;7744;52.172;10.668;2023-04-19T04:09:07;3.30;1.00
15286;DHT22;7744;52.172;10.668;2023-04-19T04:11:33;3.30;1.00
15286;DHT22;7744;52.172;10.668;2023-04-19T04:13:58;3.30;1.00
15286;DHT22;7744;52.172;10.668;2023-04-19T04:16:24;3.30;1.00
15286;DHT22;7744;52.172;10.668;2023-04-19T04:18:49;3.40;1.00
15286;DHT22;7744;52.172;10.668;2023-04-19T04:21:15;3.50;1.00
15286;DHT22;7744;52.172;10.668;2023-04-19T04:23:40;3.40;1.00
15286;DHT22;7744;52.172;10.668;2023-04-19T04:26:06;3.50;1.00
15286;DHT22;7744;52.172;10.668;2023-04-19T04:28:34;3.50;1.00
15286;DHT22;7744;52.172;10.668;2023-04-19T04:30:59;3.60;1.00
15286;DHT22;7744;52.172;10.668;2023-04-19T04:33:27;3.70;1.00
15286;DHT22;7744;52.172;10.668;2023-04-19T04:35:54;4.00;1.00
15286;DHT22;7744;52.172;10.668;2023-04-19T04:38:20;3.70;1.00
15286;DHT22;7744;52.172;10.668;2023-04-19T04:40:53;3.90;1.00
15286;DHT22;7744;52.172;10.668;2023-04-19T04:43:20;4.10;1.00
15286;DHT22;7744;52.172;10.668;2023-04-19T04:45:47;4.20;1.00
15286;DHT22;7744;52.172;10.668;2023-04-19T04:48:13;4.20;1.00
15286;DHT22;7744;52.172;10.668;2023-04-19T04:50:39;4.40;1.00
15286;DHT22;7744;52.172;10.668;2023-04-19T04:53:04;4.40;1.00
15286;DHT22;7744;52.172;10.668;2023-04-19T04:55:30;4.60;1.00
15286;DHT22;7744;52.172;10.668;2023-04-19T04:57:55;4.80;1.00
15286;DHT22;7744;52.172;10.668;2023-04-19T05:00:22;4.90;1.00
15286;DHT22;7744;52.172;10.668;2023-04-19T05:02:47;5.00;1.00
15286;DHT22;7744;52.172;10.668;2023-04-19T05:05:13;5.10;1.00
15286;DHT22;7744;52.172;10.668;2023-04-19T05:07:39;5.20;1.00
15286;DHT22;7744;52.172;10.668;2023-04-19T05:10:05;5.40;1.00
15286;DHT22;7744;52.172;10.668;2023-04-19T05:12:31;5.40;1.00
15286;DHT22;7744;52.172;10.668;2023-04-19T05:14:57;5.30;1.00
15286;DHT22;7744;52.172;10.668;2023-04-19T05:17:22;5.30;1.00
15286;DHT22;7744;52.172;10.668;2023-04-19T05:19:48;5.20;1.00
15286;DHT22;7744;52.172;10.668;2023-04-19T05:22:14;5.20;1.00
15286;DHT22;7744;52.172;10.668;2023-04-19T05:24:40;5.20;1.00
15286;DHT22;7744;52.172;10.668;2023-04-19T05:27:05;5.10;1.00
15286;DHT22;7744;52.172;10.668;2023-04-19T05:29:31;5.10;1.00
15286;DHT22;7744;52.172;10.668;2023-04-19T05:31:57;5.10;1.00
15286;DHT22;7744;52.172;10.668;2023-04-19T05:34:23;5.10;1.00
15286;DHT22;7744;52.172;10.668;2023-04-19T05:36:49;5.20;1.00
15286;DHT22;7744;52.172;10.668;2023-04-19T05:39:14;5.20;1.00
15286;DHT22;7744;52.172;10.668;2023-04-19T05:41:41;5.10;1.00
15286;DHT22;7744;52.172;10.668;2023-04-19T05:44:06;5.30;1.00
15286;DHT22;7744;52.172;10.668;2023-04-19T05:46:32;5.30;1.00
15286;DHT22;7744;52.172;10.668;2023-04-19T05:48:57;5.40;1.00
15286;DHT22;7744;52.172;10.668;2023-04-19T05:51:23;5.50;1.00
15286;DHT22;7744;52.172;10.668;2023-04-19T05:53:48;5.40;1.00
15286;DHT22;7744;52.172;10.668;2023-04-19T05:56:14;5.40;1.00
15286;DHT22;7744;52.172;10.668;2023-04-19T05:58:40;5.50;1.00
15286;DHT22;7744;52.172;10.668;2023-04-19T06:01:05;5.50;1.00
15286;DHT22;7744;52.172;10.668;2023-04-19T06:03:31;5.30;1.00
15286;DHT22;7744;52.172;10.668;2023-04-19T06:05:58;5.40;1.00
15286;DHT22;7744;52.172;10.668;2023-04-19T06:08:23;5.40;1.00
15286;DHT22;7744;52.172;10.668;2023-04-19T06:10:49;5.50;1.00
15286;DHT22;7744;52.172;10.668;2023-04-19T06:13:15;5.50;1.00
15286;DHT22;7744;52.172;10.668;2023-04-19T06:15:41;5.60;1.00
15286;DHT22;7744;52.172;10.668;2023-04-19T06:18:06;5.60;1.00
15286;DHT22;7744;52.172;10.668;2023-04-19T06:20:38;5.80;1.00
15286;DHT22;7744;52.172;10.668;2023-04-19T06:23:07;6.90;1.00
15286;DHT22;7744;52.172;10.668;2023-04-19T06:25:33;8.70;1.00
15286;DHT22;7744;52.172;10.668;2023-04-19T06:27:58;9.60;1.00
15286;DHT22;7744;52.172;10.668;2023-04-19T06:30:24;10.40;1.00
15286;DHT22;7744;52.172;10.668;2023-04-19T06:32:50;10.50;1.00
15286;DHT22;7744;52.172;10.668;2023-04-19T06:35:16;11.10;1.00
15286;DHT22;7744;52.172;10.668;2023-04-19T06:37:41;11.80;1.00
15286;DHT22;7744;52.172;10.668;2023-04-19T06:40:07;12.10;1.00
15286;DHT22;7744;52.172;10.668;2023-04-19T06:42:34;12.20;1.00
15286;DHT22;7744;52.172;10.668;2023-04-19T06:45:00;12.30;1.00
15286;DHT22;7744;52.172;10.668;2023-04-19T06:47:26;12.70;1.00
15286;DHT22;7744;52.172;10.668;2023-04-19T06:49:51;13.20;1.00
15286;DHT22;7744;52.172;10.668;2023-04-19T06:52:17;12.80;1.00
15286;DHT22;7744;52.172;10.668;2023-04-19T06:54:50;12.70;1.00
15286;DHT22;7744;52.172;10.668;2023-04-19T06:57:16;13.10;1.00
15286;DHT22;7744;52.172;10.668;2023-04-19T06:59:42;12.30;1.00
15286;DHT22;7744;52.172;10.668;2023-04-19T07:02:08;11.80;1.00
15286;DHT22;7744;52.172;10.668;2023-04-19T07:04:35;11.60;1.00
15286;DHT22;7744;52.172;10.668;2023-04-19T07:07:01;11.70;1.00
15286;DHT22;7744;52.172;10.668;2023-04-19T07:09:27;10.80;1.00
15286;DHT22;7744;52.172;10.668;2023-04-19T07:11:53;9.40;1.00
15286;DHT22;7744;52.172;10.668;2023-04-19T07:14:18;8.50;1.00
15286;DHT22;7744;52.172;10.668;2023-04-19T07:16:45;7.90;1.00
15286;DHT22;7744;52.172;10.668;2023-04-19T07:19:11;7.80;1.00
15286;DHT22;7744;52.172;10.668;2023-04-19T07:21:37;7.80;1.00
15286;DHT22;7744;52.172;10.668;2023-04-19T07:24:04;7.80;1.00
15286;DHT22;7744;52.172;10.668;2023-04-19T07:26:31;7.80;1.00
15286;DHT22;7744;52.172;10.668;2023-04-19T07:28:56;7.90;1.00
15286;DHT22;7744;52.172;10.668;2023-04-19T07:31:22;7.90;1.00
15286;DHT22;7744;52.172;10.668;2023-04-19T07:33:49;7.80;1.00
15286;DHT22;7744;52.172;10.668;2023-04-19T07:36:15;7.90;1.00
15286;DHT22;7744;52.172;10.668;2023-04-19T07:38:41;8.00;1.00
15286;DHT22;7744;52.172;10.668;2023-04-19T07:41:06;7.90;1.00
15286;DHT22;7744;52.172;10.668;2023-04-19T07:43:32;7.90;1.00
15286;DHT22;7744;52.172;10.668;2023-04-19T07:45:58;8.00;1.00
15286;DHT22;7744;52.172;10.668;2023-04-19T07:48:23;8.10;1.00
15286;DHT22;7744;52.172;10.668;2023-04-19T07:50:49;8.10;1.00
15286;DHT22;7744;52.172;10.668;2023-04-19T07:53:15;8.20;1.00
15286;DHT22;7744;52.172;10.668;2023-04-19T07:55:42;8.90;1.00
15286;DHT22;7744;52.172;10.668;2023-04-19T07:58:08;8.20;1.00
15286;DHT22;7744;52.172;10.668;2023-04-19T08:00:33;8.20;1.00
15286;DHT22;7744;52.172;10.668;2023-04-19T08:03:01;8.20;1.00
15286;DHT22;7744;52.172;10.668;2023-04-19T08:05:26;8.20;1.00
15286;DHT22;7744;52.172;10.668;2023-04-19T08:07:52;8.20;1.00
15286;DHT22;7744;52.172;10.668;2023-04-19T08:10:18;8.40;1.00
15286;DHT22;7744;52.172;10.668;2023-04-19T08:12:44;8.50;1.00
15286;DHT22;7744;52.172;10.668;2023-04-19T08:15:10;8.60;1.00
15286;DHT22;7744;52.172;10.668;2023-04-19T08:17:36;8.60;1.00
15286;DHT22;7744;52.172;10.668;2023-04-19T08:20:01;8.60;1.00
15286;DHT22;7744;52.172;10.668;2023-04-19T08:22:28;8.70;1.00
15286;DHT22;7744;52.172;10.668;2023-04-19T08:24:53;8.70;1.00
15286;DHT22;7744;52.172;10.668;2023-04-19T08:27:20;8.80;1.00
15286;DHT22;7744;52.172;10.668;2023-04-19T08:29:45;8.90;1.00
15286;DHT22;7744;52.172;10.668;2023-04-19T08:32:11;9.00;1.00
15286;DHT22;7744;52.172;10.668;2023-04-19T08:34:38;9.10;1.00
15286;DHT22;7744;52.172;10.668;2023-04-19T08:37:04;9.20;1.00
15286;DHT22;7744;52.172;10.668;2023-04-19T08:39:32;9.30;1.00
15286;DHT22;7744;52.172;10.668;2023-04-19T08:42:04;9.40;1.00
15286;DHT22;7744;52.172;10.668;2023-04-19T08:44:32;9.40;1.00
15286;DHT22;7744;52.172;10.668;2023-04-19T08:46:58;9.50;1.00
15286;DHT22;7744;52.172;10.668;2023-04-19T08:49:25;9.40;1.00
15286;DHT22;7744;52.172;10.668;2023-04-19T08:51:52;9.50;1.00
15286;DHT22;7744;52.172;10.668;2023-04-19T08:54:19;9.50;1.00
15286;DHT22;7744;52.172;10.668;2023-04-19T08:56:46;9.60;1.00
15286;DHT22;7744;52.172;10.668;2023-04-19T08:59:11;9.60;1.00
15286;DHT22;7744;52.172;10.668;2023-04-19T09:01:38;9.70;1.00
15286;DHT22;7744;52.172;10.668;2023-04-19T09:04:05;9.70;1.00
15286;DHT22;7744;52.172;10.668;2023-04-19T09:06:39;9.70;1.00
15286;DHT22;7744;52.172;10.668;2023-04-19T09:09:21;9.70;1.00
15286;DHT22;7744;52.172;10.668;2023-04-19T09:11:47;9.80;1.00
15286;DHT22;7744;52.172;10.668;2023-04-19T09:14:16;9.90;1.00
15286;DHT22;7744;52.172;10.668;2023-04-19T09:16:43;10.00;1.00
15286;DHT22;7744;52.172;10.668;2023-04-19T09:19:10;10.00;1.00
15286;DHT22;7744;52.172;10.668;2023-04-19T09:21:37;10.00;1.00
15286;DHT22;7744;52.172;10.668;2023-04-19T09:24:04;9.90;1.00
15286;DHT22;7744;52.172;10.668;2023-04-19T09:26:30;10.10;1.00
15286;DHT22;7744;52.172;10.668;2023-04-19T09:28:59;10.10;1.00
15286;DHT22;7744;52.172;10.668;2023-04-19T09:31:29;10.20;1.00
15286;DHT22;7744;52.172;10.668;2023-04-19T09:33:57;10.20;1.00
15286;DHT22;7744;52.172;10.668;2023-04-19T09:36:32;10.20;1.00
15286;DHT22;7744;52.172;10.668;2023-04-19T09:38:58;10.20;1.00
15286;DHT22;7744;52.172;10.668;2023-04-19T09:41:25;10.20;1.00
15286;DHT22;7744;52.172;10.668;2023-04-19T09:43:51;10.20;1.00
15286;DHT22;7744;52.172;10.668;2023-04-19T09:46:31;10.20;1.00
15286;DHT22;7744;52.172;10.668;2023-04-19T09:49:15;10.10;1.00
15286;DHT22;7744;52.172;10.668;2023-04-19T09:51:47;10.10;1.00
15286;DHT22;7744;52.172;10.668;2023-04-19T09:54:15;10.20;1.00
15286;DHT22;7744;52.172;10.668;2023-04-19T09:56:41;10.20;1.00
15286;DHT22;7744;52.172;10.668;2023-04-19T09:59:07;10.30;1.00
15286;DHT22;7744;52.172;10.668;2023-04-19T10:04:04;10.50;1.00
15286;DHT22;7744;52.172;10.668;2023-04-19T10:06:31;10.50;1.00
15286;DHT22;7744;52.172;10.668;2023-04-19T10:09:00;10.50;1.00
15286;DHT22;7744;52.172;10.668;2023-04-19T10:11:34;10.50;1.00
15286;DHT22;7744;52.172;10.668;2023-04-19T10:14:04;10.50;1.00
15286;DHT22;7744;52.172;10.668;2023-04-19T10:16:31;10.50;1.00
15286;DHT22;7744;52.172;10.668;2023-04-19T10:18:57;10.70;1.00
15286;DHT22;7744;52.172;10.668;2023-04-19T10:21:24;10.90;1.00
15286;DHT22;7744;52.172;10.668;2023-04-19T10:23:52;10.90;1.00
15286;DHT22;7744;52.172;10.668;2023-04-19T10:26:17;10.90;1.00
15286;DHT22;7744;52.172;10.668;2023-04-19T10:28:43;10.90;1.00
15286;DHT22;7744;52.172;10.668;2023-04-19T10:31:12;10.90;1.00
15286;DHT22;7744;52.172;10.668;2023-04-19T10:33:39;11.20;1.00
15286;DHT22;7744;52.172;10.668;2023-04-19T10:36:08;11.40;1.00
15286;DHT22;7744;52.172;10.668;2023-04-19T10:38:36;11.30;1.00
15286;DHT22;7744;52.172;10.668;2023-04-19T10:41:02;11.50;1.00
15286;DHT22;7744;52.172;10.668;2023-04-19T10:43:32;11.50;1.00
15286;DHT22;7744;52.172;10.668;2023-04-19T10:46:01;11.50;1.00
15286;DHT22;7744;52.172;10.668;2023-04-19T10:48:31;11.50;1.00
15286;DHT22;7744;52.172;10.668;2023-04-19T10:51:11;11.70;1.00
15286;DHT22;7744;52.172;10.668;2023-04-19T10:56:57;11.50;1.00
15286;DHT22;7744;52.172;10.668;2023-04-19T10:59:28;11.50;1.00
15286;DHT22;7744;52.172;10.668;2023-04-19T11:01:56;11.50;1.00
15286;DHT22;7744;52.172;10.668;2023-04-19T11:09:38;11.80;1.00
15286;DHT22;7744;52.172;10.668;2023-04-19T11:12:07;11.80;1.00
15286;DHT22;7744;52.172;10.668;2023-04-19T11:14:35;11.90;1.00
15286;DHT22;7744;52.172;10.668;2023-04-19T11:17:11;12.00;1.00
15286;DHT22;7744;52.172;10.668;2023-04-19T11:19:38;12.00;1.00
15286;DHT22;7744;52.172;10.668;2023-04-19T11:22:04;11.90;1.00
15286;DHT22;7744;52.172;10.668;2023-04-19T11:24:29;11.90;1.00
15286;DHT22;7744;52.172;10.668;2023-04-19T11:26:55;11.80;1.00
15286;DHT22;7744;52.172;10.668;2023-04-19T11:29:23;11.80;1.00
15286;DHT22;7744;52.172;10.668;2023-04-19T11:31:49;11.60;1.00
15286;DHT22;7744;52.172;10.668;2023-04-19T11:34:14;11.50;1.00
15286;DHT22;7744;52.172;10.668;2023-04-19T11:36:49;11.70;1.00
15286;DHT22;7744;52.172;10.668;2023-04-19T11:39:14;11.80;1.00
15286;DHT22;7744;52.172;10.668;2023-04-19T11:41:40;11.80;1.00
15286;DHT22;7744;52.172;10.668;2023-04-19T11:44:17;11.90;1.00
15286;DHT22;7744;52.172;10.668;2023-04-19T11:46:57;11.80;1.00
15286;DHT22;7744;52.172;10.668;2023-04-19T11:49:30;11.80;1.00
15286;DHT22;7744;52.172;10.668;2023-04-19T11:52:00;11.90;1.00
15286;DHT22;7744;52.172;10.668;2023-04-19T11:54:27;11.90;1.00
15286;DHT22;7744;52.172;10.668;2023-04-19T11:57:00;11.90;1.00
15286;DHT22;7744;52.172;10.668;2023-04-19T11:59:27;12.00;1.00
15286;DHT22;7744;52.172;10.668;2023-04-19T12:01:53;12.10;1.00
15286;DHT22;7744;52.172;10.668;2023-04-19T12:04:19;11.90;1.00
15286;DHT22;7744;52.172;10.668;2023-04-19T12:06:58;12.10;1.00
15286;DHT22;7744;52.172;10.668;2023-04-19T12:09:24;12.10;1.00
15286;DHT22;7744;52.172;10.668;2023-04-19T12:11:50;12.00;1.00
15286;DHT22;7744;52.172;10.668;2023-04-19T12:14:17;12.00;1.00
15286;DHT22;7744;52.172;10.668;2023-04-19T12:19:44;12.30;1.00
15286;DHT22;7744;52.172;10.668;2023-04-19T12:22:15;12.30;1.00
15286;DHT22;7744;52.172;10.668;2023-04-19T12:24:41;12.60;1.00
15286;DHT22;7744;52.172;10.668;2023-04-19T12:27:08;12.70;1.00
15286;DHT22;7744;52.172;10.668;2023-04-19T12:29:34;12.70;1.00
15286;DHT22;7744;52.172;10.668;2023-04-19T12:32:00;12.70;1.00
15286;DHT22;7744;52.172;10.668;2023-04-19T12:34:26;12.60;1.00
15286;DHT22;7744;52.172;10.668;2023-04-19T12:36:52;12.70;1.00
15286;DHT22;7744;52.172;10.668;2023-04-19T12:39:17;12.80;1.00
15286;DHT22;7744;52.172;10.668;2023-04-19T12:41:43;12.70;1.00
15286;DHT22;7744;52.172;10.668;2023-04-19T12:44:09;12.50;1.00
15286;DHT22;7744;52.172;10.668;2023-04-19T12:46:34;12.20;1.00
15286;DHT22;7744;52.172;10.668;2023-04-19T12:49:00;12.50;1.00
15286;DHT22;7744;52.172;10.668;2023-04-19T12:51:26;12.20;1.00
15286;DHT22;7744;52.172;10.668;2023-04-19T12:53:52;12.30;1.00
15286;DHT22;7744;52.172;10.668;2023-04-19T12:56:18;12.40;1.00
15286;DHT22;7744;52.172;10.668;2023-04-19T12:58:45;12.40;1.00
15286;DHT22;7744;52.172;10.668;2023-04-19T13:01:14;12.70;1.00
15286;DHT22;7744;52.172;10.668;2023-04-19T13:03:39;12.70;1.00
15286;DHT22;7744;52.172;10.668;2023-04-19T13:06:05;12.60;1.00
15286;DHT22;7744;52.172;10.668;2023-04-19T13:08:31;12.60;1.00
15286;DHT22;7744;52.172;10.668;2023-04-19T13:10:57;13.00;1.00
15286;DHT22;7744;52.172;10.668;2023-04-19T13:13:27;12.70;1.00
15286;DHT22;7744;52.172;10.668;2023-04-19T13:15:54;12.50;1.00
15286;DHT22;7744;52.172;10.668;2023-04-19T13:18:20;12.30;1.00
15286;DHT22;7744;52.172;10.668;2023-04-19T13:20:47;12.30;1.00
15286;DHT22;7744;52.172;10.668;2023-04-19T13:23:14;12.20;1.00
15286;DHT22;7744;52.172;10.668;2023-04-19T13:25:39;12.70;1.00
15286;DHT22;7744;52.172;10.668;2023-04-19T13:28:05;12.90;1.00
15286;DHT22;7744;52.172;10.668;2023-04-19T13:30:31;12.70;1.00
15286;DHT22;7744;52.172;10.668;2023-04-19T13:32:56;13.30;1.00
15286;DHT22;7744;52.172;10.668;2023-04-19T13:35:22;12.50;1.00
15286;DHT22;7744;52.172;10.668;2023-04-19T13:37:48;12.40;1.00
15286;DHT22;7744;52.172;10.668;2023-04-19T13:40:15;12.30;1.00
15286;DHT22;7744;52.172;10.668;2023-04-19T13:42:41;12.30;1.00
15286;DHT22;7744;52.172;10.668;2023-04-19T13:45:07;12.50;1.00
15286;DHT22;7744;52.172;10.668;2023-04-19T13:47:33;12.50;1.00
15286;DHT22;7744;52.172;10.668;2023-04-19T13:49:59;12.40;1.00
15286;DHT22;7744;52.172;10.668;2023-04-19T13:52:25;12.40;1.00
15286;DHT22;7744;52.172;10.668;2023-04-19T13:54:51;12.30;1.00
15286;DHT22;7744;52.172;10.668;2023-04-19T13:57:16;12.40;1.00
15286;DHT22;7744;52.172;10.668;2023-04-19T13:59:42;12.10;1.00
15286;DHT22;7744;52.172;10.668;2023-04-19T14:02:07;12.00;1.00
15286;DHT22;7744;52.172;10.668;2023-04-19T14:04:33;11.90;1.00
15286;DHT22;7744;52.172;10.668;2023-04-19T14:06:59;11.90;1.00
15286;DHT22;7744;52.172;10.668;2023-04-19T14:09:24;12.00;1.00
15286;DHT22;7744;52.172;10.668;2023-04-19T14:11:50;11.80;1.00
15286;DHT22;7744;52.172;10.668;2023-04-19T14:14:16;11.80;1.00
15286;DHT22;7744;52.172;10.668;2023-04-19T14:16:42;11.80;1.00
15286;DHT22;7744;52.172;10.668;2023-04-19T14:19:08;11.80;1.00
15286;DHT22;7744;52.172;10.668;2023-04-19T14:21:33;12.10;1.00
15286;DHT22;7744;52.172;10.668;2023-04-19T14:23:59;12.40;1.00
15286;DHT22;7744;52.172;10.668;2023-04-19T14:26:24;13.40;1.00
15286;DHT22;7744;52.172;10.668;2023-04-19T14:28:50;12.80;1.00
15286;DHT22;7744;52.172;10.668;2023-04-19T14:31:16;12.80;1.00
15286;DHT22;7744;52.172;10.668;2023-04-19T14:33:42;12.60;1.00
15286;DHT22;7744;52.172;10.668;2023-04-19T14:36:07;12.30;1.00
15286;DHT22;7744;52.172;10.668;2023-04-19T14:38:36;12.10;1.00
15286;DHT22;7744;52.172;10.668;2023-04-19T14:41:19;12.00;1.00
15286;DHT22;7744;52.172;10.668;2023-04-19T14:43:59;12.00;1.00
15286;DHT22;7744;52.172;10.668;2023-04-19T14:46:25;12.00;1.00
15286;DHT22;7744;52.172;10.668;2023-04-19T14:48:51;12.30;1.00
15286;DHT22;7744;52.172;10.668;2023-04-19T14:51:16;12.40;1.00
15286;DHT22;7744;52.172;10.668;2023-04-19T14:53:42;12.60;1.00
15286;DHT22;7744;52.172;10.668;2023-04-19T14:56:07;12.60;1.00
15286;DHT22;7744;52.172;10.668;2023-04-19T14:58:33;12.40;1.00
15286;DHT22;7744;52.172;10.668;2023-04-19T15:00:58;12.80;1.00
15286;DHT22;7744;52.172;10.668;2023-04-19T15:03:24;12.20;1.00
15286;DHT22;7744;52.172;10.668;2023-04-19T15:05:50;12.70;1.00
15286;DHT22;7744;52.172;10.668;2023-04-19T15:08:15;12.10;1.00
15286;DHT22;7744;52.172;10.668;2023-04-19T15:10:41;12.20;1.00
15286;DHT22;7744;52.172;10.668;2023-04-19T15:13:06;12.40;1.00
15286;DHT22;7744;52.172;10.668;2023-04-19T15:15:32;12.40;1.00
15286;DHT22;7744;52.172;10.668;2023-04-19T15:17:57;12.30;1.00
15286;DHT22;7744;52.172;10.668;2023-04-19T15:20:23;12.30;1.00
15286;DHT22;7744;52.172;10.668;2023-04-19T15:22:48;12.30;1.00
15286;DHT22;7744;52.172;10.668;2023-04-19T15:25:14;12.20;1.00
15286;DHT22;7744;52.172;10.668;2023-04-19T15:27:39;12.10;1.00
15286;DHT22;7744;52.172;10.668;2023-04-19T15:30:06;12.00;1.00
15286;DHT22;7744;52.172;10.668;2023-04-19T15:32:32;11.90;1.00
15286;DHT22;7744;52.172;10.668;2023-04-19T15:35:00;11.90;1.00
15286;DHT22;7744;52.172;10.668;2023-04-19T15:37:26;12.00;1.00
15286;DHT22;7744;52.172;10.668;2023-04-19T15:39:52;12.00;1.00
15286;DHT22;7744;52.172;10.668;2023-04-19T15:42:17;12.20;1.00
15286;DHT22;7744;52.172;10.668;2023-04-19T15:44:43;12.50;1.00
15286;DHT22;7744;52.172;10.668;2023-04-19T15:47:08;12.40;1.00
15286;DHT22;7744;52.172;10.668;2023-04-19T15:49:34;12.20;1.00
15286;DHT22;7744;52.172;10.668;2023-04-19T15:51:59;12.60;1.00
15286;DHT22;7744;52.172;10.668;2023-04-19T15:54:25;12.00;1.00
15286;DHT22;7744;52.172;10.668;2023-04-19T15:56:51;12.00;1.00
15286;DHT22;7744;52.172;10.668;2023-04-19T15:59:17;11.90;1.00
15286;DHT22;7744;52.172;10.668;2023-04-19T16:01:42;11.90;1.00
15286;DHT22;7744;52.172;10.668;2023-04-19T16:04:08;11.80;1.00